Time;durP1;ratioP1;P1;durP2;ratioP2;P2;SDS_P1;SDS_P2;PMS_P1;PMS_P2;Temp;Humidity;BMP_temperature;BMP_pressure;BME280_temperature;BME280_humidity;BME280_pressure;Samples;Min_cycle;Max_cycle;Signal;HPM_P1;HPM_P2
2024/02/21 00:00:05;;;;;;;12.23;5.05;;;7.30;98.30;;;;;;5049614;28;20036;-68
2024/02/21 00:02:31;;;;;;;11.75;5.13;;;7.40;98.40;;;;;;5054096;28;20332;-68
2024/02/21 00:04:56;;;;;;;9.07;4.80;;;7.30;98.60;;;;;;5048219;28;20153;-68
2024/02/21 00:07:22;;;;;;;10.05;5.13;;;7.40;98.80;;;;;;5050005;28;20094;-67
2024/02/21 00:09:48;;;;;;;11.45;5.53;;;7.30;98.90;;;;;;5048889;28;20036;-68
2024/02/21 00:12:13;;;;;;;10.93;4.60;;;7.30;99.10;;;;;;5043805;28;20441;-67
2024/02/21 00:14:40;;;;;;;11.70;4.72;;;7.30;99.20;;;;;;5045469;28;20056;-68
2024/02/21 00:17:05;;;;;;;11.50;5.15;;;7.30;99.30;;;;;;5049273;28;20033;-68
2024/02/21 00:19:31;;;;;;;13.60;6.15;;;7.20;99.40;;;;;;5047441;28;20272;-67
2024/02/21 00:21:56;;;;;;;10.68;4.63;;;7.20;99.50;;;;;;5048832;28;20063;-68
2024/02/21 00:24:22;;;;;;;11.13;5.40;;;7.30;99.50;;;;;;5042732;28;20041;-67
2024/02/21 00:26:47;;;;;;;11.30;5.57;;;7.20;99.50;;;;;;5042794;28;20107;-68
2024/02/21 00:29:13;;;;;;;8.38;4.57;;;7.30;99.50;;;;;;5048800;28;20048;-68
2024/02/21 00:31:38;;;;;;;11.95;5.63;;;7.30;99.40;;;;;;5054283;28;20102;-68
2024/02/21 00:34:04;;;;;;;10.65;5.20;;;7.30;99.40;;;;;;5052315;28;20420;-67
2024/02/21 00:36:29;;;;;;;10.98;5.53;;;7.30;99.40;;;;;;5043289;28;20026;-67
2024/02/21 00:38:55;;;;;;;9.88;5.15;;;7.30;99.40;;;;;;5055023;28;20485;-69
2024/02/21 00:41:20;;;;;;;11.07;5.03;;;7.30;99.40;;;;;;5052628;28;20041;-67
2024/02/21 00:43:48;;;;;;;11.10;5.10;;;7.30;99.40;;;;;;5053644;28;20033;-67
2024/02/21 00:46:13;;;;;;;11.98;5.65;;;7.30;99.30;;;;;;5052048;28;20086;-68
2024/02/21 00:48:39;;;;;;;10.80;4.70;;;7.30;99.20;;;;;;5053304;28;20366;-67
2024/02/21 00:51:04;;;;;;;11.57;5.82;;;7.30;99.10;;;;;;5055744;28;20032;-67
2024/02/21 00:53:30;;;;;;;11.10;5.68;;;7.40;99.10;;;;;;5056796;28;20032;-68
2024/02/21 00:55:56;;;;;;;9.38;5.38;;;7.40;98.80;;;;;;5051979;28;20033;-69
2024/02/21 00:58:22;;;;;;;10.13;4.85;;;7.50;98.50;;;;;;5047866;28;20094;-68
2024/02/21 01:00:47;;;;;;;11.15;5.70;;;7.50;98.30;;;;;;5052327;28;20063;-68
2024/02/21 01:03:13;;;;;;;10.80;4.70;;;7.50;98.30;;;;;;5048942;28;20051;-68
2024/02/21 01:05:38;;;;;;;12.30;5.93;;;7.50;98.20;;;;;;5044890;28;20445;-68
2024/02/21 01:08:04;;;;;;;10.75;5.30;;;7.60;98.10;;;;;;5048854;28;20115;-68
2024/02/21 01:10:30;;;;;;;12.00;5.55;;;7.60;98.00;;;;;;5046779;28;20120;-68
2024/02/21 01:12:55;;;;;;;13.98;6.68;;;7.60;98.00;;;;;;5018648;28;20462;-68
2024/02/21 01:15:21;;;;;;;12.23;5.63;;;7.60;98.00;;;;;;5047441;28;20045;-68
2024/02/21 01:17:46;;;;;;;12.57;5.75;;;7.60;97.90;;;;;;5051276;28;20037;-68
2024/02/21 01:20:12;;;;;;;14.00;7.60;;;7.60;97.80;;;;;;5046032;28;20158;-68
2024/02/21 01:22:37;;;;;;;11.68;6.13;;;7.60;97.90;;;;;;5055430;28;20096;-67
2024/02/21 01:25:03;;;;;;;11.55;5.95;;;7.60;98.10;;;;;;5045361;28;20037;-68
2024/02/21 01:27:29;;;;;;;11.77;5.57;;;7.60;98.10;;;;;;5044246;28;20091;-70
2024/02/21 01:29:54;;;;;;;14.82;6.75;;;7.60;98.20;;;;;;5047578;28;20591;-67
2024/02/21 01:32:20;;;;;;;12.38;5.90;;;7.60;98.30;;;;;;5047638;28;20047;-68
2024/02/21 01:34:45;;;;;;;10.13;5.20;;;7.60;98.20;;;;;;5041856;28;20120;-68
2024/02/21 01:37:10;;;;;;;11.52;5.93;;;7.50;98.30;;;;;;5050071;28;20041;-68
2024/02/21 01:39:37;;;;;;;12.20;6.72;;;7.60;98.30;;;;;;5047690;28;20112;-68
2024/02/21 01:42:02;;;;;;;11.93;6.18;;;7.60;98.20;;;;;;5046794;28;20095;-67
2024/02/21 01:44:28;;;;;;;12.38;6.68;;;7.50;98.30;;;;;;5047854;28;20422;-67
2024/02/21 01:46:54;;;;;;;11.02;6.32;;;7.50;98.40;;;;;;5045845;28;20127;-68
2024/02/21 01:49:21;;;;;;;13.35;7.28;;;7.50;98.60;;;;;;5057808;28;20032;-67
2024/02/21 01:51:47;;;;;;;13.43;7.20;;;7.50;98.80;;;;;;5048312;28;20585;-68
2024/02/21 01:54:14;;;;;;;13.40;6.65;;;7.50;99.10;;;;;;5049387;28;20037;-68
2024/02/21 01:56:40;;;;;;;14.30;7.35;;;7.40;99.30;;;;;;5051777;28;20036;-68
2024/02/21 01:59:06;;;;;;;11.68;5.82;;;7.40;99.40;;;;;;5049751;28;20369;-68
2024/02/21 02:01:31;;;;;;;11.77;6.53;;;7.40;99.40;;;;;;5057994;28;20032;-69
2024/02/21 02:03:58;;;;;;;13.77;7.25;;;7.40;99.60;;;;;;5034941;28;20142;-68
2024/02/21 02:06:24;;;;;;;14.23;6.88;;;7.40;99.50;;;;;;5057447;28;20517;-68
2024/02/21 02:08:50;;;;;;;11.73;5.80;;;7.40;99.40;;;;;;5045834;28;20115;-68
2024/02/21 02:11:16;;;;;;;15.32;7.50;;;7.40;99.60;;;;;;5045250;28;20151;-67
2024/02/21 02:13:42;;;;;;;14.00;6.40;;;7.40;99.70;;;;;;5048973;28;20171;-67
2024/02/21 02:16:07;;;;;;;18.23;7.53;;;7.30;99.70;;;;;;5049462;28;20103;-68
2024/02/21 02:18:33;;;;;;;11.32;6.20;;;7.30;99.70;;;;;;5048167;28;20040;-67
2024/02/21 02:20:58;;;;;;;10.43;6.13;;;7.30;99.60;;;;;;5044327;28;20398;-68
2024/02/21 02:23:29;;;;;;;13.88;7.53;;;7.40;99.50;;;;;;5048349;28;20036;-68
2024/02/21 02:25:55;;;;;;;;;;;7.40;99.30;;;;;;5046705;28;20135;-68
2024/02/21 02:28:21;;;;;;;14.60;7.15;;;7.40;99.20;;;;;;5046940;28;20000;-69
2024/02/21 02:30:47;;;;;;;11.80;6.97;;;7.40;99.10;;;;;;5045112;28;20107;-69
2024/02/21 02:33:12;;;;;;;12.90;7.20;;;7.40;99.00;;;;;;5046508;28;20029;-67
2024/02/21 02:35:38;;;;;;;11.23;6.03;;;7.50;98.90;;;;;;5043520;28;20462;-68
2024/02/21 02:38:04;;;;;;;14.05;6.60;;;7.50;98.80;;;;;;5045193;28;20115;-68
2024/02/21 02:40:30;;;;;;;12.65;6.97;;;7.50;98.70;;;;;;5046934;28;20036;-68
2024/02/21 02:42:55;;;;;;;13.77;6.88;;;7.50;98.50;;;;;;5049061;28;20028;-67
2024/02/21 02:45:23;;;;;;;13.68;6.57;;;7.50;98.20;;;;;;5046070;28;20032;-68
2024/02/21 02:47:49;;;;;;;17.75;7.53;;;7.50;98.10;;;;;;5044834;28;20079;-68
2024/02/21 02:50:15;;;;;;;18.08;8.05;;;7.60;97.90;;;;;;5033550;28;20036;-67
2024/02/21 02:52:40;;;;;;;14.02;6.68;;;7.60;97.70;;;;;;5046428;28;20451;-68
2024/02/21 02:55:06;;;;;;;12.57;6.07;;;7.60;97.70;;;;;;5046295;28;20040;-67
2024/02/21 02:57:32;;;;;;;12.45;6.63;;;7.60;97.60;;;;;;5046458;28;20068;-68
2024/02/21 02:59:58;;;;;;;12.35;6.15;;;7.60;97.60;;;;;;5048367;28;20415;-67
2024/02/21 03:02:24;;;;;;;13.77;7.55;;;7.70;97.40;;;;;;5045191;28;20052;-67
2024/02/21 03:05:13;;;;;;;10.60;5.53;;;7.60;97.60;;;;;;5043329;28;20068;-69
2024/02/21 03:07:38;;;;;;;17.50;7.07;;;7.60;97.50;;;;;;5044863;28;20094;-68
2024/02/21 03:10:04;;;;;;;11.15;5.82;;;7.60;97.50;;;;;;5047642;28;20621;-70
2024/02/21 03:12:30;;;;;;;13.25;6.25;;;7.60;97.40;;;;;;5050187;28;20351;-68
2024/02/21 03:14:55;;;;;;;12.35;5.95;;;7.60;97.40;;;;;;5052297;28;20063;-69
2024/02/21 03:17:21;;;;;;;13.85;5.88;;;7.60;97.40;;;;;;5046764;28;20064;-68
2024/02/21 03:19:48;;;;;;;15.77;6.13;;;7.60;97.50;;;;;;5047758;28;20131;-68
2024/02/21 03:22:14;;;;;;;13.70;6.50;;;7.60;97.40;;;;;;5048137;28;20344;-68
2024/02/21 03:24:39;;;;;;;14.32;5.28;;;7.60;97.30;;;;;;5043508;28;20025;-68
2024/02/21 03:27:04;;;;;;;13.75;6.30;;;7.70;97.30;;;;;;5051114;28;20501;-67
2024/02/21 03:29:30;;;;;;;16.13;6.65;;;7.60;97.40;;;;;;5055272;28;20087;-68
2024/02/21 03:31:55;;;;;;;12.13;6.70;;;7.60;97.40;;;;;;5048593;28;20150;-69
2024/02/21 03:34:21;;;;;;;12.40;6.85;;;7.70;97.00;;;;;;5052914;28;20075;-69
2024/02/21 03:36:46;;;;;;;15.63;6.63;;;7.80;96.80;;;;;;5048225;28;20480;-68
2024/02/21 03:39:12;;;;;;;11.75;6.25;;;7.70;96.90;;;;;;5047566;28;20040;-68
2024/02/21 03:41:37;;;;;;;13.35;6.13;;;7.70;96.90;;;;;;5047657;28;20107;-68
2024/02/21 03:44:03;;;;;;;12.77;6.43;;;7.80;96.70;;;;;;5040574;28;20025;-67
2024/02/21 03:46:28;;;;;;;12.23;6.13;;;7.70;96.70;;;;;;5046954;28;20040;-68
2024/02/21 03:48:53;;;;;;;10.85;5.97;;;7.80;96.60;;;;;;5047069;28;20043;-68
2024/02/21 03:51:19;;;;;;;12.25;5.82;;;7.70;96.80;;;;;;5046333;28;20058;-68
2024/02/21 03:53:44;;;;;;;11.75;5.55;;;7.70;96.80;;;;;;5044470;28;20207;-68
2024/02/21 03:56:10;;;;;;;13.23;6.07;;;7.70;96.60;;;;;;5050455;28;20090;-67
2024/02/21 03:58:35;;;;;;;12.13;6.32;;;7.70;96.80;;;;;;5046083;28;20118;-68
2024/02/21 04:01:02;;;;;;;15.65;6.55;;;7.70;96.90;;;;;;5044103;28;20412;-68
2024/02/21 04:03:27;;;;;;;13.20;6.78;;;7.70;97.10;;;;;;5044702;28;20025;-70
2024/02/21 04:05:53;;;;;;;12.77;5.72;;;7.70;97.30;;;;;;5046134;28;20393;-67
2024/02/21 04:08:19;;;;;;;11.15;5.47;;;7.60;97.40;;;;;;5050157;28;20056;-67
2024/02/21 04:10:44;;;;;;;12.27;5.57;;;7.60;97.60;;;;;;5043485;28;20037;-67
2024/02/21 04:13:10;;;;;;;9.75;5.60;;;7.60;97.80;;;;;;5044305;28;20041;-67
2024/02/21 04:15:35;;;;;;;14.40;5.68;;;7.60;97.90;;;;;;5051373;28;20080;-67
2024/02/21 04:18:02;;;;;;;11.95;5.72;;;7.60;98.10;;;;;;5049128;28;20037;-67
2024/02/21 04:20:28;;;;;;;11.18;5.93;;;7.50;98.40;;;;;;5045143;28;20789;-68
2024/02/21 04:22:54;;;;;;;10.13;5.35;;;7.40;98.80;;;;;;5051756;28;20119;-68
2024/02/21 04:25:20;;;;;;;12.73;5.78;;;7.40;99.10;;;;;;5050813;28;20104;-68
2024/02/21 04:27:46;;;;;;;10.38;5.55;;;7.40;99.30;;;;;;5049662;28;20116;-67
2024/02/21 04:30:11;;;;;;;11.85;5.72;;;7.30;99.50;;;;;;5049885;28;20111;-68
2024/02/21 04:32:37;;;;;;;10.25;6.07;;;7.30;99.70;;;;;;5049224;28;20078;-69
2024/02/21 04:35:03;;;;;;;13.48;6.65;;;7.30;99.80;;;;;;5042498;28;20025;-68
2024/02/21 04:37:28;;;;;;;12.15;5.78;;;7.20;99.90;;;;;;5046696;28;20473;-67
2024/02/21 04:39:54;;;;;;;12.10;5.53;;;7.20;99.90;;;;;;5050543;28;20126;-67
2024/02/21 04:42:19;;;;;;;11.13;5.80;;;7.20;99.90;;;;;;5051253;28;20074;-67
2024/02/21 04:44:45;;;;;;;13.27;5.72;;;7.20;99.90;;;;;;5039629;28;20666;-68
2024/02/21 04:47:10;;;;;;;9.98;5.68;;;7.20;99.90;;;;;;5051446;28;20467;-68
2024/02/21 04:49:36;;;;;;;9.35;5.50;;;7.20;99.90;;;;;;5057016;28;20052;-69
2024/02/21 04:52:02;;;;;;;11.93;6.45;;;7.10;99.90;;;;;;5054568;28;20035;-67
2024/02/21 04:54:27;;;;;;;9.23;5.00;;;7.20;99.90;;;;;;5044785;28;20446;-69
2024/02/21 04:56:53;;;;;;;12.45;6.18;;;7.20;99.90;;;;;;5045622;28;20366;-68
2024/02/21 04:59:18;;;;;;;11.18;5.40;;;7.20;99.90;;;;;;5050930;28;20048;-68
2024/02/21 05:01:44;;;;;;;10.93;6.25;;;7.20;99.90;;;;;;5046384;28;20032;-67
2024/02/21 05:04:10;;;;;;;10.55;5.18;;;7.20;99.90;;;;;;5048570;28;20033;-67
2024/02/21 05:06:39;;;;;;;14.00;6.90;;;7.10;99.90;;;;;;5046992;28;20064;-67
2024/02/21 05:09:05;;;;;;;12.05;5.70;;;7.10;99.90;;;;;;5050991;28;20066;-68
2024/02/21 05:11:31;;;;;;;10.88;5.15;;;7.10;99.90;;;;;;5045055;28;20026;-68
2024/02/21 05:13:56;;;;;;;10.52;5.57;;;7.20;99.90;;;;;;5049455;28;20041;-68
2024/02/21 05:16:22;;;;;;;8.63;4.85;;;7.10;99.90;;;;;;5048283;28;20049;-67
2024/02/21 05:18:47;;;;;;;9.48;4.75;;;7.20;99.90;;;;;;5047626;28;20037;-68
2024/02/21 05:21:13;;;;;;;10.90;4.97;;;7.20;99.90;;;;;;5045989;28;20066;-67
2024/02/21 05:23:39;;;;;;;10.20;5.00;;;7.20;99.90;;;;;;5047788;28;20348;-68
2024/02/21 05:26:05;;;;;;;8.98;4.22;;;7.20;99.90;;;;;;5047347;28;20043;-67
2024/02/21 05:28:31;;;;;;;13.27;5.45;;;7.10;99.90;;;;;;5045892;28;20025;-67
2024/02/21 05:30:56;;;;;;;14.57;5.40;;;7.20;99.90;;;;;;5050251;28;20055;-68
2024/02/21 05:33:22;;;;;;;9.35;4.53;;;7.20;99.90;;;;;;5048344;28;20044;-67
2024/02/21 05:35:48;;;;;;;10.05;4.95;;;7.10;99.90;;;;;;5043159;28;20500;-67
2024/02/21 05:38:14;;;;;;;7.70;4.43;;;7.20;99.90;;;;;;5047480;28;20345;-67
2024/02/21 05:40:39;;;;;;;7.63;4.00;;;7.10;99.90;;;;;;5047397;28;20094;-67
2024/02/21 05:43:05;;;;;;;7.32;4.10;;;7.20;99.90;;;;;;5045176;28;20064;-67
2024/02/21 05:45:30;;;;;;;9.63;5.10;;;7.20;99.90;;;;;;5049701;28;20033;-68
2024/02/21 05:47:57;;;;;;;8.57;4.28;;;7.10;99.90;;;;;;5047654;28;20439;-67
2024/02/21 05:50:23;;;;;;;10.25;4.28;;;7.20;99.90;;;;;;5047399;28;20047;-66
2024/02/21 05:52:52;;;;;;;9.65;4.60;;;7.20;99.90;;;;;;5050854;28;20078;-66
2024/02/21 05:55:18;;;;;;;10.60;4.30;;;7.20;99.90;;;;;;5045702;28;20115;-68
2024/02/21 05:57:43;;;;;;;6.97;3.78;;;7.20;99.90;;;;;;5048994;28;20114;-67
2024/02/21 06:00:09;;;;;;;9.40;3.90;;;7.20;99.90;;;;;;5049583;28;20033;-67
2024/02/21 06:02:34;;;;;;;8.93;4.07;;;7.20;99.90;;;;;;5050348;28;20151;-66
2024/02/21 06:05:00;;;;;;;8.25;4.50;;;7.20;99.90;;;;;;5044481;28;20033;-67
2024/02/21 06:07:26;;;;;;;8.38;4.20;;;7.30;99.90;;;;;;5047808;28;20025;-69
2024/02/21 06:09:51;;;;;;;8.77;4.22;;;7.20;99.90;;;;;;5048721;28;20441;-66
2024/02/21 06:12:17;;;;;;;8.32;3.88;;;7.20;99.90;;;;;;5046247;28;20045;-69
2024/02/21 06:14:42;;;;;;;7.55;4.18;;;7.20;99.90;;;;;;5052279;28;20040;-66
2024/02/21 06:17:08;;;;;;;10.75;4.65;;;7.20;99.90;;;;;;5047331;28;20378;-67
2024/02/21 06:19:33;;;;;;;6.75;3.53;;;7.20;99.90;;;;;;5053388;28;20041;-67
2024/02/21 06:21:59;;;;;;;6.05;3.30;;;7.30;99.90;;;;;;5051931;28;20525;-67
2024/02/21 06:24:24;;;;;;;7.97;3.58;;;7.20;99.90;;;;;;5044377;28;20129;-66
2024/02/21 06:26:50;;;;;;;6.70;3.58;;;7.20;99.90;;;;;;5046299;28;20439;-67
2024/02/21 06:29:15;;;;;;;5.88;3.17;;;7.20;99.90;;;;;;5030505;28;20570;-67
2024/02/21 06:31:41;;;;;;;6.00;3.20;;;7.20;99.90;;;;;;5046401;28;20467;-68
2024/02/21 06:34:06;;;;;;;6.82;3.40;;;7.20;99.90;;;;;;5046421;28;20041;-67
2024/02/21 06:36:31;;;;;;;5.65;2.75;;;7.20;99.90;;;;;;5038802;28;20113;-66
2024/02/21 06:38:58;;;;;;;9.38;3.88;;;7.20;99.90;;;;;;5045285;28;20545;-68
2024/02/21 06:41:23;;;;;;;6.88;3.38;;;7.20;99.90;;;;;;5049657;28;20403;-66
2024/02/21 06:43:49;;;;;;;7.65;3.22;;;7.20;99.90;;;;;;5048306;28;20119;-67
2024/02/21 06:46:25;;;;;;;6.70;3.17;;;7.20;99.90;;;;;;5047118;28;20033;-67
2024/02/21 06:48:51;;;;;;;7.25;3.50;;;7.20;99.90;;;;;;5048150;28;20087;-66
2024/02/21 06:51:16;;;;;;;6.78;2.95;;;7.20;99.90;;;;;;5047606;28;20053;-67
2024/02/21 06:53:43;;;;;;;6.20;3.20;;;7.20;99.90;;;;;;5041409;28;20075;-67
2024/02/21 06:56:09;;;;;;;5.68;3.10;;;7.20;99.90;;;;;;5038030;28;20070;-68
2024/02/21 06:58:35;;;;;;;5.38;2.80;;;7.20;99.90;;;;;;5043096;28;20144;-66
2024/02/21 07:01:01;;;;;;;6.20;2.88;;;7.20;99.90;;;;;;5045560;28;20134;-69
2024/02/21 07:03:27;;;;;;;4.70;2.42;;;7.20;99.90;;;;;;5046100;28;20478;-66
2024/02/21 07:05:52;;;;;;;5.15;2.50;;;7.20;99.90;;;;;;5044102;28;20438;-67
2024/02/21 07:08:18;;;;;;;7.60;3.67;;;7.20;99.90;;;;;;5039576;28;20155;-67
2024/02/21 07:10:43;;;;;;;6.38;3.13;;;7.20;99.90;;;;;;5041841;28;20127;-66
2024/02/21 07:13:09;;;;;;;5.90;2.90;;;7.20;99.90;;;;;;5046634;28;20024;-67
2024/02/21 07:15:36;;;;;;;5.00;2.97;;;7.20;99.90;;;;;;5045595;28;20444;-67
2024/02/21 07:18:01;;;;;;;6.70;2.63;;;7.20;99.90;;;;;;5046845;28;20025;-68
2024/02/21 07:20:27;;;;;;;5.40;2.55;;;7.30;99.90;;;;;;5046126;28;20051;-66
2024/02/21 07:22:52;;;;;;;5.35;2.97;;;7.20;99.90;;;;;;5045800;28;20021;-67
2024/02/21 07:25:18;;;;;;;5.80;2.78;;;7.20;99.90;;;;;;5042741;28;20119;-67
2024/02/21 07:27:44;;;;;;;6.25;3.22;;;7.20;99.90;;;;;;5045178;28;20188;-67
2024/02/21 07:30:10;;;;;;;5.50;2.58;;;7.30;99.90;;;;;;5045565;28;20017;-66
2024/02/21 07:32:35;;;;;;;5.75;2.90;;;7.30;99.90;;;;;;5045307;28;20037;-67
2024/02/21 07:35:01;;;;;;;3.72;2.22;;;7.30;99.90;;;;;;5043471;28;20040;-67
2024/02/21 07:37:27;;;;;;;5.35;2.60;;;7.30;99.90;;;;;;5046443;28;20477;-68
2024/02/21 07:39:52;;;;;;;4.38;2.10;;;7.30;99.90;;;;;;5042918;28;20072;-67
2024/02/21 07:42:18;;;;;;;6.60;3.15;;;7.30;99.90;;;;;;5046255;28;20064;-67
2024/02/21 07:44:43;;;;;;;4.07;2.00;;;7.30;99.90;;;;;;5048431;28;20425;-67
2024/02/21 07:47:08;;;;;;;5.47;2.60;;;7.30;99.90;;;;;;5049135;28;20459;-67
2024/02/21 07:49:41;;;;;;;5.22;2.75;;;7.30;99.90;;;;;;5046447;28;20256;-67
2024/02/21 07:52:07;;;;;;;5.65;2.88;;;7.30;99.90;;;;;;5026001;28;20120;-67
2024/02/21 07:54:33;;;;;;;5.70;2.70;;;7.30;99.90;;;;;;5045034;28;20156;-67
2024/02/21 07:56:58;;;;;;;4.68;2.65;;;7.40;99.90;;;;;;5042883;28;20021;-67
2024/02/21 07:59:23;;;;;;;5.90;2.85;;;7.30;99.90;;;;;;5049001;28;20332;-67
2024/02/21 08:01:49;;;;;;;5.80;2.35;;;7.40;99.90;;;;;;5048605;28;20170;-67
2024/02/21 08:04:14;;;;;;;6.93;3.13;;;7.40;99.90;;;;;;5047268;28;20033;-68
2024/02/21 08:06:40;;;;;;;4.88;2.40;;;7.40;99.90;;;;;;5046571;28;20045;-68
2024/02/21 08:09:05;;;;;;;4.93;2.78;;;7.40;99.90;;;;;;5049356;28;20033;-67
2024/02/21 08:11:31;;;;;;;5.53;2.55;;;7.40;99.90;;;;;;5047492;28;20113;-68
2024/02/21 08:13:57;;;;;;;5.15;2.47;;;7.50;99.90;;;;;;5047647;28;20044;-67
2024/02/21 08:16:23;;;;;;;7.43;3.13;;;7.50;99.90;;;;;;5048487;28;20037;-67
2024/02/21 08:18:48;;;;;;;4.13;2.30;;;7.50;99.90;;;;;;5053626;28;20036;-69
2024/02/21 08:21:14;;;;;;;5.28;2.35;;;7.50;99.90;;;;;;5048548;28;20144;-67
2024/02/21 08:23:39;;;;;;;6.32;3.22;;;7.50;99.90;;;;;;5011629;28;20059;-67
2024/02/21 08:26:05;;;;;;;6.55;3.10;;;7.50;99.90;;;;;;5044153;28;20094;-67
2024/02/21 08:28:31;;;;;;;5.00;2.53;;;7.50;99.90;;;;;;5045744;28;20068;-68
2024/02/21 08:30:56;;;;;;;5.97;2.83;;;7.50;99.90;;;;;;5049309;28;20032;-67
2024/02/21 08:33:24;;;;;;;5.97;3.28;;;7.50;99.90;;;;;;5042661;28;20021;-68
2024/02/21 08:35:51;;;;;;;5.35;2.92;;;7.60;99.90;;;;;;5047460;28;20094;-68
2024/02/21 08:38:17;;;;;;;5.35;2.22;;;7.50;99.90;;;;;;5044084;28;20038;-68
2024/02/21 08:40:42;;;;;;;6.38;3.15;;;7.60;99.90;;;;;;5045983;28;20451;-67
2024/02/21 08:43:08;;;;;;;5.75;2.88;;;7.60;99.90;;;;;;5042985;28;20029;-68
2024/02/21 08:45:33;;;;;;;7.78;3.65;;;7.60;99.90;;;;;;5045743;28;20080;-68
2024/02/21 08:47:58;;;;;;;6.07;3.28;;;7.60;99.90;;;;;;5043962;28;20041;-68
2024/02/21 08:50:24;;;;;;;7.32;3.42;;;7.60;99.90;;;;;;5046782;28;20244;-68
2024/02/21 08:52:49;;;;;;;8.38;3.47;;;7.60;99.90;;;;;;5046009;28;20370;-69
2024/02/21 08:55:15;;;;;;;5.70;3.15;;;7.60;99.90;;;;;;5044776;28;20123;-67
2024/02/21 08:57:40;;;;;;;7.80;3.50;;;7.60;99.90;;;;;;5045206;28;20072;-67
2024/02/21 09:00:09;;;;;;;8.35;4.22;;;7.60;99.90;;;;;;5050756;28;20048;-67
2024/02/21 09:02:40;;;;;;;7.93;3.65;;;7.60;99.90;;;;;;5043506;28;20087;-68
2024/02/21 09:05:06;;;;;;;6.30;3.63;;;7.60;99.90;;;;;;5036074;28;20086;-68
2024/02/21 09:07:31;;;;;;;10.20;5.03;;;7.60;99.90;;;;;;5050161;28;20037;-68
2024/02/21 09:09:57;;;;;;;8.02;3.78;;;7.50;99.90;;;;;;5028475;28;20435;-67
2024/02/21 09:12:22;;;;;;;8.45;4.20;;;7.50;99.90;;;;;;5051991;28;20116;-68
2024/02/21 09:14:50;;;;;;;9.82;4.63;;;7.60;99.90;;;;;;5049194;28;20111;-68
2024/02/21 09:17:17;;;;;;;10.50;5.32;;;7.60;99.90;;;;;;5052960;28;20033;-68
2024/02/21 09:19:43;;;;;;;9.82;4.95;;;7.50;99.90;;;;;;5054430;28;20480;-68
2024/02/21 09:22:08;;;;;;;8.48;4.75;;;7.50;99.90;;;;;;5029147;28;20110;-68
2024/02/21 09:24:34;;;;;;;11.88;5.25;;;7.50;99.90;;;;;;5043997;28;20037;-67
2024/02/21 09:27:00;;;;;;;10.70;5.22;;;7.50;99.90;;;;;;5048741;28;20064;-68
2024/02/21 09:29:25;;;;;;;10.60;5.38;;;7.50;99.90;;;;;;5025838;28;20650;-67
2024/02/21 09:31:52;;;;;;;9.45;4.63;;;7.60;99.90;;;;;;5025902;28;20478;-68
2024/02/21 09:34:17;;;;;;;10.80;5.30;;;7.50;99.90;;;;;;5031873;28;20483;-68
2024/02/21 09:36:44;;;;;;;11.77;6.15;;;7.60;99.90;;;;;;5006429;28;20071;-69
2024/02/21 09:39:14;;;;;;;11.27;6.15;;;7.60;99.90;;;;;;5004468;28;20050;-67
2024/02/21 09:41:45;;;;;;;17.17;6.38;;;7.60;99.90;;;;;;5029845;28;20038;-68
2024/02/21 09:44:14;;;;;;;9.98;5.13;;;7.60;99.90;;;;;;5030071;28;20032;-69
2024/02/21 09:46:55;;;;;;;10.10;5.47;;;7.60;99.90;;;;;;5030729;28;20203;-67
2024/02/21 09:49:32;;;;;;;11.10;5.07;;;7.60;99.90;;;;;;4987851;28;20037;-69
2024/02/21 09:52:02;;;;;;;13.57;5.55;;;7.60;99.90;;;;;;5027617;28;20062;-69
2024/02/21 09:54:29;;;;;;;9.63;4.87;;;7.70;99.90;;;;;;5028099;28;20033;-69
2024/02/21 09:56:54;;;;;;;10.13;5.43;;;7.80;99.90;;;;;;5024922;28;20029;-67
2024/02/21 09:59:20;;;;;;;10.50;4.90;;;7.80;99.90;;;;;;5027021;28;20201;-68
2024/02/21 10:01:50;;;;;;;8.70;4.30;;;7.90;99.90;;;;;;5031249;28;20047;-68
2024/02/21 10:04:15;;;;;;;9.07;4.82;;;8.00;99.90;;;;;;5025933;28;20492;-68
2024/02/21 10:06:41;;;;;;;9.65;4.97;;;8.00;99.90;;;;;;5024915;28;20447;-67
2024/02/21 10:09:07;;;;;;;11.35;5.05;;;8.00;99.90;;;;;;5028812;28;20033;-68
2024/02/21 10:11:36;;;;;;;11.35;4.88;;;8.00;99.80;;;;;;5005380;28;20490;-68
2024/02/21 10:14:07;;;;;;;9.20;4.68;;;8.10;99.90;;;;;;5030804;28;20144;-69
2024/02/21 10:16:34;;;;;;;8.07;4.68;;;8.10;99.60;;;;;;5024409;28;20041;-68
2024/02/21 10:18:59;;;;;;;10.13;4.88;;;8.20;99.30;;;;;;5028150;28;20095;-68
2024/02/21 10:21:25;;;;;;;9.38;4.63;;;8.20;99.20;;;;;;5028666;28;20460;-69
2024/02/21 10:23:51;;;;;;;9.18;4.18;;;8.30;99.30;;;;;;5026913;28;20113;-68
2024/02/21 10:26:20;;;;;;;10.15;5.28;;;8.30;99.10;;;;;;5028643;28;20040;-69
2024/02/21 10:28:48;;;;;;;9.05;4.28;;;8.20;98.80;;;;;;5029560;28;20107;-68
2024/02/21 10:31:27;;;;;;;10.35;5.13;;;8.20;98.60;;;;;;5036992;28;20047;-68
2024/02/21 10:34:05;;;;;;;8.30;3.97;;;8.10;98.40;;;;;;5026382;28;20359;-68
2024/02/21 10:36:30;;;;;;;11.85;4.82;;;8.20;98.40;;;;;;5031570;28;20038;-69
2024/02/21 10:38:56;;;;;;;10.68;4.25;;;8.10;98.60;;;;;;5024376;28;20080;-68
2024/02/21 10:41:23;;;;;;;9.60;4.72;;;8.10;98.60;;;;;;5026466;28;20021;-68
2024/02/21 10:43:53;;;;;;;10.65;4.72;;;8.10;98.40;;;;;;5024972;28;20087;-68
2024/02/21 10:46:20;;;;;;;9.88;5.18;;;8.10;98.10;;;;;;5024119;28;20393;-68
2024/02/21 10:48:47;;;;;;;9.25;4.88;;;8.10;98.30;;;;;;5021710;28;20038;-68
2024/02/21 10:51:20;;;;;;;26.30;9.95;;;8.10;98.50;;;;;;5022302;28;20120;-68
2024/02/21 10:53:59;;;;;;;8.57;4.53;;;8.10;98.60;;;;;;5025866;28;20087;-68
2024/02/21 10:56:35;;;;;;;12.93;5.57;;;8.00;98.60;;;;;;5022634;28;20126;-68
2024/02/21 10:59:02;;;;;;;14.35;5.70;;;8.00;98.60;;;;;;5024789;28;20052;-69
2024/02/21 11:01:31;;;;;;;9.23;4.60;;;8.00;98.50;;;;;;5023062;28;20140;-69
2024/02/21 11:04:05;;;;;;;23.02;8.88;;;8.00;98.70;;;;;;5022720;28;20096;-68
2024/02/21 11:06:33;;;;;;;10.18;4.53;;;8.00;98.90;;;;;;5021937;28;20085;-68
2024/02/21 11:09:03;;;;;;;9.18;4.63;;;7.90;98.80;;;;;;5023896;28;20045;-68
2024/02/21 11:11:32;;;;;;;10.90;4.80;;;7.80;98.90;;;;;;5012189;28;20045;-69
2024/02/21 11:14:17;;;;;;;9.90;4.70;;;7.80;99.10;;;;;;5025027;28;20443;-68
2024/02/21 11:16:43;;;;;;;9.50;4.68;;;7.70;99.10;;;;;;5022955;28;20057;-68
2024/02/21 11:19:10;;;;;;;9.27;4.13;;;7.70;99.10;;;;;;5023185;28;20124;-69
2024/02/21 11:21:37;;;;;;;8.95;4.10;;;7.70;99.20;;;;;;5024553;28;20044;-68
2024/02/21 11:24:04;;;;;;;7.80;3.67;;;7.70;99.10;;;;;;5021720;28;20324;-72
2024/02/21 11:26:31;;;;;;;11.05;5.15;;;7.60;99.10;;;;;;5022688;28;20051;-68
2024/02/21 11:29:03;;;;;;;8.13;4.57;;;7.70;99.00;;;;;;5020262;28;20116;-70
2024/02/21 11:31:42;;;;;;;8.60;4.75;;;7.70;98.90;;;;;;5018747;28;20451;-70
2024/02/21 11:34:18;;;;;;;10.60;5.53;;;7.70;98.60;;;;;;5019942;28;20041;-69
2024/02/21 11:36:49;;;;;;;9.38;4.57;;;7.70;98.30;;;;;;5018994;28;20037;-69
2024/02/21 11:39:32;;;;;;;9.23;5.30;;;7.80;98.30;;;;;;5020130;28;20025;-70
2024/02/21 11:42:07;;;;;;;6.47;3.80;;;7.80;98.20;;;;;;5016183;28;20114;-70
2024/02/21 11:44:34;;;;;;;10.73;5.28;;;7.80;97.90;;;;;;5021054;28;20352;-70
2024/02/21 11:47:00;;;;;;;9.88;4.80;;;7.90;97.90;;;;;;5023949;28;20037;-69
2024/02/21 11:49:26;;;;;;;10.55;5.18;;;7.90;97.60;;;;;;5036804;28;20546;-71
2024/02/21 11:52:04;;;;;;;9.55;4.45;;;8.00;97.50;;;;;;5031729;28;20029;-69
2024/02/21 11:54:30;;;;;;;7.13;4.10;;;8.00;97.40;;;;;;5022304;28;20510;-70
2024/02/21 11:56:55;;;;;;;10.60;5.03;;;8.00;97.60;;;;;;5022269;28;20076;-69
2024/02/21 11:59:21;;;;;;;9.70;5.00;;;8.00;97.50;;;;;;5028201;28;20525;-70
2024/02/21 12:01:48;;;;;;;8.95;4.85;;;8.10;97.60;;;;;;5035914;28;20481;-70
2024/02/21 12:04:13;;;;;;;7.70;4.68;;;8.00;97.50;;;;;;5029253;28;20073;-70
2024/02/21 12:06:40;;;;;;;7.82;4.20;;;8.10;97.50;;;;;;5022847;28;20109;-69
2024/02/21 12:09:09;;;;;;;7.72;4.47;;;8.10;97.60;;;;;;5032836;28;20283;-68
2024/02/21 12:11:34;;;;;;;11.13;5.35;;;8.20;96.90;;;;;;5021350;28;20119;-69
2024/02/21 12:14:01;;;;;;;7.13;4.15;;;8.20;96.30;;;;;;5026731;28;20075;-68
2024/02/21 12:16:28;;;;;;;9.82;5.15;;;8.30;96.30;;;;;;5030429;28;20053;-69
2024/02/21 12:18:54;;;;;;;8.90;5.10;;;8.40;95.80;;;;;;5029053;28;20033;-68
2024/02/21 12:21:23;;;;;;;10.43;5.68;;;8.50;95.10;;;;;;5022496;28;20042;-69
2024/02/21 12:23:48;;;;;;;10.52;5.72;;;8.60;95.30;;;;;;5024427;28;20068;-69
2024/02/21 12:26:13;;;;;;;9.15;5.15;;;8.80;95.10;;;;;;5023899;28;20060;-68
2024/02/21 12:28:39;;;;;;;10.27;4.90;;;8.90;94.20;;;;;;5023978;28;20094;-69
2024/02/21 12:31:04;;;;;;;8.80;4.65;;;9.00;94.40;;;;;;5024810;28;20052;-70
2024/02/21 12:33:31;;;;;;;8.57;5.15;;;8.90;93.10;;;;;;5025501;28;20109;-69
2024/02/21 12:35:57;;;;;;;8.88;4.78;;;9.00;93.40;;;;;;5028209;28;20129;-69
2024/02/21 12:38:22;;;;;;;9.95;5.07;;;9.00;92.40;;;;;;5025619;28;20100;-69
2024/02/21 12:40:48;;;;;;;6.38;4.00;;;8.90;92.90;;;;;;5029625;28;20117;-70
2024/02/21 12:43:13;;;;;;;7.93;3.65;;;8.80;92.20;;;;;;5027675;28;20037;-70
2024/02/21 12:45:39;;;;;;;7.60;3.83;;;8.80;91.90;;;;;;5025623;28;20136;-70
2024/02/21 12:48:05;;;;;;;8.70;4.13;;;8.70;92.50;;;;;;5031657;28;20128;-70